Time;durP1;ratioP1;P1;durP2;ratioP2;P2;SDS_P1;SDS_P2;PMS_P1;PMS_P2;Temp;Humidity;BMP_temperature;BMP_pressure;BME280_temperature;BME280_humidity;BME280_pressure;Samples;Min_cycle;Max_cycle;Signal;HPM_P1;HPM_P2
2022/11/22 00:01:59;;;;;;;8.63;4.55;;;;;;;-142.75;100.00;76013.25;4993326;28;20438;-67
2022/11/22 00:04:25;;;;;;;11.85;4.22;;;;;;;-142.75;100.00;76011.28;5000167;28;20419;-65
2022/11/22 00:06:50;;;;;;;13.40;4.43;;;;;;;-142.75;100.00;76019.16;4990094;28;20497;-65
2022/11/22 00:09:15;;;;;;;10.93;4.50;;;;;;;-142.75;100.00;76015.22;4995469;28;20316;-65
2022/11/22 00:11:41;;;;;;;7.93;4.15;;;;;;;-142.75;100.00;76007.34;4990455;28;20303;-65
2022/11/22 00:14:06;;;;;;;8.57;4.13;;;;;;;-142.75;100.00;76007.34;4993921;28;20307;-66
2022/11/22 00:16:33;;;;;;;8.77;4.35;;;;;;;-142.75;100.00;76007.34;4995072;28;20340;-66
2022/11/22 00:18:59;;;;;;;12.13;4.53;;;;;;;-142.75;100.00;76007.34;4986814;28;20043;-66
2022/11/22 00:21:24;;;;;;;15.43;4.32;;;;;;;-142.75;100.00;76023.09;4982914;28;20340;-65
2022/11/22 00:23:56;;;;;;;12.25;4.75;;;;;;;-142.75;100.00;76011.28;4987343;28;20295;-65
2022/11/22 00:26:22;;;;;;;12.90;3.93;;;;;;;-142.75;100.00;76017.19;4988993;28;20029;-65
2022/11/22 00:28:47;;;;;;;10.98;5.18;;;;;;;-142.75;100.00;76015.22;4989381;28;20330;-66
2022/11/22 00:31:13;;;;;;;10.93;4.32;;;;;;;-142.75;100.00;76011.28;4995230;28;20349;-65
2022/11/22 00:33:38;;;;;;;12.95;4.80;;;;;;;-142.75;100.00;76021.13;4991475;28;20277;-65
2022/11/22 00:36:04;;;;;;;6.90;3.42;;;;;;;-142.75;100.00;76013.25;4988706;28;20194;-66
2022/11/22 00:38:29;;;;;;;11.23;3.75;;;;;;;-142.75;100.00;76021.13;4985184;28;20321;-66
2022/11/22 00:40:55;;;;;;;10.15;3.55;;;;;;;-142.75;100.00;76027.03;4985918;28;20253;-66
2022/11/22 00:43:20;;;;;;;11.48;4.03;;;;;;;-142.75;100.00;76013.25;4986615;28;20139;-65
2022/11/22 00:45:46;;;;;;;7.97;3.80;;;;;;;-142.75;100.00;76011.28;4992100;28;20444;-65
2022/11/22 00:48:11;;;;;;;12.50;4.05;;;;;;;-142.75;100.00;76011.28;4989288;28;20314;-65
2022/11/22 00:50:37;;;;;;;9.77;3.72;;;;;;;-142.75;100.00;76011.28;4995008;28;20258;-65
2022/11/22 00:53:03;;;;;;;;;;;;;;;-142.75;100.00;76009.31;4988792;28;20032;-65
2022/11/22 00:55:28;;;;;;;11.30;3.60;;;;;;;-142.75;100.00;76021.13;4998614;28;20120;-65
2022/11/22 00:57:54;;;;;;;5.75;3.42;;;;;;;-142.75;100.00;76017.19;4996365;28;20348;-65
2022/11/22 01:00:20;;;;;;;7.25;3.13;;;;;;;-142.75;100.00;76007.34;4986493;28;20270;-65
2022/11/22 01:02:45;;;;;;;10.23;2.75;;;;;;;-142.75;100.00;75999.47;4992120;28;20420;-65
2022/11/22 01:05:11;;;;;;;8.32;3.15;;;;;;;-142.75;100.00;75997.50;4990831;28;20039;-65
2022/11/22 01:07:36;;;;;;;8.35;3.50;;;;;;;-142.75;100.00;76001.44;4990439;28;20377;-65
2022/11/22 01:10:02;;;;;;;9.43;3.53;;;;;;;-142.75;100.00;75997.50;4989147;28;20241;-65
2022/11/22 01:12:27;;;;;;;12.23;2.75;;;;;;;-142.75;100.00;75999.47;4988000;28;20325;-66
2022/11/22 01:14:53;;;;;;;8.63;3.13;;;;;;;-142.75;100.00;76009.31;4993800;28;20422;-66
2022/11/22 01:17:19;;;;;;;12.88;3.38;;;;;;;-142.75;100.00;76011.28;4998551;28;20367;-65
2022/11/22 01:19:44;;;;;;;8.13;2.90;;;;;;;-142.75;100.00;76017.19;4986225;28;20340;-67
2022/11/22 01:22:10;;;;;;;6.70;2.50;;;;;;;-142.75;100.00;76027.03;4996007;28;20328;-65
2022/11/22 01:24:35;;;;;;;5.65;2.53;;;;;;;-142.75;100.00;76015.22;4990640;28;20020;-66
2022/11/22 01:27:01;;;;;;;7.28;3.00;;;;;;;-142.75;100.00;76015.22;4989777;28;20369;-65
2022/11/22 01:29:26;;;;;;;9.30;2.80;;;;;;;-142.75;100.00;76023.09;4995332;28;20491;-65
2022/11/22 01:31:52;;;;;;;7.38;2.83;;;;;;;-142.75;100.00;76015.22;4992255;28;20368;-65
2022/11/22 01:34:17;;;;;;;12.40;3.33;;;;;;;-142.75;100.00;76015.22;4991310;28;20303;-65
2022/11/22 01:36:43;;;;;;;8.60;2.47;;;;;;;-142.75;100.00;76034.91;4993982;28;20020;-64
2022/11/22 01:39:08;;;;;;;10.73;2.92;;;;;;;-142.75;100.00;76027.03;4991847;28;20201;-65
2022/11/22 01:41:34;;;;;;;5.97;2.53;;;;;;;-142.75;100.00;76017.19;4988962;28;20349;-64
2022/11/22 01:44:26;;;;;;;9.18;2.38;;;;;;;-142.75;100.00;76036.88;5001591;28;20457;-65
2022/11/22 01:46:56;;;;;;;14.00;2.47;;;;;;;-142.75;100.00;76019.16;5002872;28;20568;-64
2022/11/22 01:49:24;;;;;;;8.80;2.70;;;;;;;-142.75;100.00;76019.16;4993371;28;20485;-66
2022/11/22 01:51:53;;;;;;;11.87;2.90;;;;;;;-142.75;100.00;76030.97;4992510;28;20031;-65
2022/11/22 01:54:23;;;;;;;9.60;2.27;;;;;;;-142.75;100.00;76027.03;4991637;28;20028;-65
2022/11/22 01:56:55;;;;;;;6.60;2.23;;;;;;;-142.75;100.00;76034.91;5005281;28;20098;-65
2022/11/22 01:59:25;;;;;;;13.13;2.47;;;;;;;-142.75;100.00;76052.63;4989650;28;20048;-66
2022/11/22 02:01:52;;;;;;;15.47;3.13;;;;;;;-142.75;100.00;76052.63;5001089;28;20656;-65
2022/11/22 02:04:21;;;;;;;5.47;2.57;;;;;;;-142.75;100.00;76052.63;4989008;28;20025;-65
2022/11/22 02:06:52;;;;;;;14.93;2.43;;;;;;;-142.75;100.00;76062.47;4997805;28;20020;-65
2022/11/22 02:09:19;;;;;;;9.43;2.23;;;;;;;-142.75;100.00;76074.25;4997715;28;20029;-64
2022/11/22 02:11:51;;;;;;;16.63;2.87;;;;;;;-142.75;100.00;76064.44;4991270;28;20017;-65
2022/11/22 02:14:22;;;;;;;11.87;1.87;;;;;;;-142.75;100.00;76072.31;4998630;28;20025;-66
2022/11/22 02:16:47;;;;;;;15.80;2.50;;;;;;;-142.75;100.00;76066.41;4996325;28;20023;-65
2022/11/22 02:19:31;;;;;;;8.82;2.67;;;;;;;-142.75;100.00;76078.19;5000029;28;20029;-65
2022/11/22 02:22:02;;;;;;;9.03;2.37;;;;;;;-142.75;100.00;76078.19;4996484;28;20051;-65
2022/11/22 02:24:38;;;;;;;9.87;1.80;;;;;;;-142.75;100.00;76072.31;4992543;28;20062;-66
2022/11/22 02:27:04;;;;;;;14.80;2.25;;;;;;;-142.75;100.00;76097.88;4995905;28;20036;-66
2022/11/22 02:29:31;;;;;;;12.18;2.10;;;;;;;-142.75;100.00;76091.97;4996504;28;20410;-65
2022/11/22 02:31:56;;;;;;;18.33;2.27;;;;;;;-142.75;100.00;76093.94;4998138;28;20055;-65
2022/11/22 02:34:22;;;;;;;16.25;1.85;;;;;;;-142.75;100.00;76101.81;4993069;28;20307;-65
2022/11/22 02:36:50;;;;;;;13.80;2.20;;;;;;;-142.75;100.00;76113.63;4990763;28;20660;-65
2022/11/22 02:39:19;;;;;;;11.37;1.63;;;;;;;-142.75;100.00;76117.56;4996090;28;20131;-64
2022/11/22 02:41:46;;;;;;;13.50;2.00;;;;;;;-142.75;100.00;76133.31;4997918;28;20025;-64
2022/11/22 02:44:12;;;;;;;19.80;2.00;;;;;;;-142.75;100.00;76127.41;4992774;28;20032;-65
2022/11/22 02:46:54;;;;;;;19.20;2.47;;;;;;;-142.75;100.00;76117.56;5002412;28;20389;-64
2022/11/22 02:49:22;;;;;;;7.97;2.10;;;;;;;-142.75;100.00;76129.38;4989814;28;20096;-65
2022/11/22 02:51:49;;;;;;;12.77;2.00;;;;;;;-142.75;100.00;76131.34;4994940;28;20105;-65
2022/11/22 02:54:14;;;;;;;12.63;1.50;;;;;;;-142.75;100.00;76125.44;4985370;28;20025;-65
2022/11/22 02:56:40;;;;;;;6.82;1.60;;;;;;;-142.75;100.00;76129.38;4989202;28;20163;-65
2022/11/22 02:59:05;;;;;;;7.53;1.52;;;;;;;-142.75;100.00;76129.38;4995292;28;20321;-65
2022/11/22 03:01:31;;;;;;;3.63;1.48;;;;;;;-142.75;100.00;76145.13;4997838;28;20529;-66
2022/11/22 03:03:56;;;;;;;7.97;2.03;;;;;;;-142.75;100.00;76145.13;4996773;28;20407;-65
2022/11/22 03:06:22;;;;;;;11.20;1.70;;;;;;;-142.75;100.00;76154.97;4988228;28;20190;-65
2022/11/22 03:08:47;;;;;;;15.52;1.92;;;;;;;-142.75;100.00;76129.38;4992752;28;20387;-65
2022/11/22 03:11:13;;;;;;;8.30;1.50;;;;;;;-142.75;100.00;76147.09;4991444;28;20377;-65
2022/11/22 03:13:39;;;;;;;13.88;1.65;;;;;;;-142.75;100.00;76151.03;4986652;28;20052;-65
2022/11/22 03:16:05;;;;;;;8.98;1.48;;;;;;;-142.75;100.00;76153.00;4994103;28;20456;-65
2022/11/22 03:18:37;;;;;;;11.75;1.95;;;;;;;-142.75;100.00;76149.06;4996216;28;20028;-64
2022/11/22 03:21:04;;;;;;;15.60;1.80;;;;;;;-142.75;100.00;76145.13;4989692;28;20061;-64
2022/11/22 03:23:29;;;;;;;10.23;1.50;;;;;;;-142.75;100.00;76149.06;4990001;28;20106;-64
2022/11/22 03:25:55;;;;;;;11.73;2.42;;;;;;;-142.75;100.00;76154.97;4996978;28;20407;-65
2022/11/22 03:28:21;;;;;;;9.27;1.67;;;;;;;-142.75;100.00;76170.72;4985938;28;20323;-64
2022/11/22 03:30:46;;;;;;;19.05;2.28;;;;;;;-142.75;100.00;76176.63;4997989;28;20322;-65
2022/11/22 03:33:12;;;;;;;13.02;1.80;;;;;;;-142.75;100.00;76164.81;4989485;28;20342;-65
2022/11/22 03:35:38;;;;;;;12.15;2.13;;;;;;;-142.75;100.00;76162.84;4992702;28;20340;-65
2022/11/22 03:38:04;;;;;;;15.88;2.30;;;;;;;-142.75;100.00;76170.72;5001679;28;20193;-65
2022/11/22 03:40:29;;;;;;;9.98;1.58;;;;;;;-142.75;100.00;76166.78;4993968;28;20127;-64
2022/11/22 03:42:58;;;;;;;8.45;1.67;;;;;;;-142.75;100.00;76164.81;4994398;28;20036;-65
2022/11/22 03:45:24;;;;;;;4.57;1.37;;;;;;;-142.75;100.00;76164.81;4993200;28;20036;-64
2022/11/22 03:47:50;;;;;;;8.48;1.58;;;;;;;-142.75;100.00;76172.69;4984396;28;20437;-65
2022/11/22 03:50:15;;;;;;;8.55;1.63;;;;;;;-142.75;100.00;76168.75;4996375;28;20058;-65
2022/11/22 03:52:41;;;;;;;7.70;1.73;;;;;;;-142.75;100.00;76182.53;4990781;28;20361;-65
2022/11/22 03:55:07;;;;;;;11.60;1.63;;;;;;;-142.75;100.00;76194.34;4991021;28;20033;-65
2022/11/22 03:57:32;;;;;;;7.18;1.50;;;;;;;-142.75;100.00;76188.44;4992273;28;20415;-65
2022/11/22 03:59:58;;;;;;;7.88;1.35;;;;;;;-142.75;100.00;76196.31;4999153;28;20435;-65
2022/11/22 04:02:23;;;;;;;13.00;2.45;;;;;;;-142.75;100.00;76212.03;4999682;28;20368;-65
2022/11/22 04:04:49;;;;;;;5.45;1.20;;;;;;;-142.75;100.00;76200.25;4998195;28;20342;-64
2022/11/22 04:07:14;;;;;;;6.07;1.42;;;;;;;-142.75;100.00;76210.06;4996319;28;20024;-64
2022/11/22 04:09:39;;;;;;;8.13;1.02;;;;;;;-142.75;100.00;76223.84;4994923;28;20456;-64
2022/11/22 04:12:05;;;;;;;12.65;2.35;;;;;;;-142.75;100.00;76233.69;4987755;28;20131;-65
2022/11/22 04:17:39;;;;;;;7.73;1.33;;;;;;;-142.75;100.00;76223.84;4989413;28;20040;-64
2022/11/22 04:22:44;;;;;;;10.87;1.70;;;;;;;-142.75;100.00;76233.69;4993811;28;20205;-64
2022/11/22 04:25:15;;;;;;;12.85;1.30;;;;;;;-142.75;100.00;76231.72;4992235;28;20342;-63
2022/11/22 04:27:40;;;;;;;3.53;1.40;;;;;;;-142.75;100.00;76237.63;4988160;28;20136;-65
2022/11/22 04:30:06;;;;;;;12.70;2.20;;;;;;;-142.75;100.00;76235.66;4993768;28;20321;-65
2022/11/22 04:32:44;;;;;;;7.53;1.35;;;;;;;-142.75;100.00;76247.47;4983548;28;20306;-65
2022/11/22 04:35:11;;;;;;;7.77;1.63;;;;;;;-142.75;100.00;76243.53;4996319;28;20059;-65
2022/11/22 04:37:36;;;;;;;6.27;1.23;;;;;;;-142.75;100.00;76251.41;5000356;28;20097;-67
2022/11/22 04:40:03;;;;;;;7.63;2.10;;;;;;;-142.75;100.00;76243.53;4994657;28;20561;-67
2022/11/22 04:45:12;;;;;;;12.73;1.70;;;;;;;-142.75;100.00;76261.25;4981300;28;20320;-65
2022/11/22 04:53:06;;;;;;;8.60;1.70;;;;;;;-142.75;100.00;76278.97;5001642;28;20260;-67
2022/11/22 04:55:31;;;;;;;9.38;1.80;;;;;;;-142.75;100.00;76271.09;4990471;28;20459;-67
2022/11/22 04:57:57;;;;;;;9.32;1.67;;;;;;;-142.75;100.00;76284.88;4992366;22;20437;-64
2022/11/22 05:00:22;;;;;;;8.70;1.55;;;;;;;-142.75;100.00;76275.03;4964591;28;20345;-65
2022/11/22 05:02:47;;;;;;;8.73;1.67;;;;;;;-142.75;100.00;76282.91;4969047;28;20476;-66
2022/11/22 05:05:13;;;;;;;15.10;1.75;;;;;;;-142.75;100.00;76271.09;4968572;28;20056;-65
2022/11/22 05:07:39;;;;;;;9.38;1.42;;;;;;;-142.75;100.00;76273.06;4972908;28;20180;-65
2022/11/22 05:10:04;;;;;;;7.05;1.95;;;;;;;-142.75;100.00;76273.06;4962495;28;20354;-65
2022/11/22 05:12:30;;;;;;;11.13;2.00;;;;;;;-142.75;100.00;76282.91;4978923;28;20258;-65
2022/11/22 05:14:55;;;;;;;11.70;1.98;;;;;;;-142.75;100.00;76267.16;4972826;28;20431;-64
2022/11/22 05:17:21;;;;;;;12.35;2.53;;;;;;;-142.75;100.00;76275.03;4972934;28;20461;-65
2022/11/22 05:19:46;;;;;;;5.35;1.42;;;;;;;-142.75;100.00;76280.94;4980435;28;20068;-67
2022/11/22 05:22:12;;;;;;;13.98;2.00;;;;;;;-142.75;100.00;76269.13;4969591;28;20175;-65
2022/11/22 05:24:37;;;;;;;6.95;2.05;;;;;;;-142.75;100.00;76261.25;4971165;28;20029;-65
2022/11/22 05:27:03;;;;;;;9.70;2.38;;;;;;;-142.75;100.00;76257.31;4965512;28;20226;-65
2022/11/22 05:29:28;;;;;;;8.48;2.10;;;;;;;-142.75;100.00;76265.19;4972148;28;20345;-66
2022/11/22 05:31:54;;;;;;;9.90;2.05;;;;;;;-142.75;100.00;76271.09;4981711;28;20034;-63
2022/11/22 05:34:19;;;;;;;10.68;2.13;;;;;;;-142.75;100.00;76269.13;4971910;28;20029;-66
2022/11/22 05:36:45;;;;;;;3.97;1.77;;;;;;;-142.75;100.00;76271.09;4983273;28;20344;-67
2022/11/22 05:39:11;;;;;;;9.70;1.88;;;;;;;-142.75;100.00;76271.09;4985181;28;20326;-64
2022/11/22 05:41:36;;;;;;;5.72;1.90;;;;;;;-142.75;100.00;76267.16;4975927;28;20191;-64
2022/11/22 05:44:01;;;;;;;8.85;1.95;;;;;;;-142.75;100.00;76255.34;4980047;28;20326;-65
2022/11/22 05:46:28;;;;;;;14.90;1.90;;;;;;;-142.75;100.00;76255.34;4973383;28;20385;-65
2022/11/22 05:48:55;;;;;;;10.90;2.63;;;;;;;-142.75;100.00;76259.28;4974595;28;20017;-65
2022/11/22 05:51:24;;;;;;;8.40;2.20;;;;;;;-142.75;100.00;76278.97;4982950;28;20017;-65
2022/11/22 05:53:49;;;;;;;12.83;2.13;;;;;;;-142.75;100.00;76263.22;4979186;28;20028;-66
2022/11/22 05:56:18;;;;;;;6.70;2.05;;;;;;;-142.75;100.00;76280.94;4976999;28;20286;-64
2022/11/22 05:58:44;;;;;;;10.87;2.43;;;;;;;-142.75;100.00;76269.13;4977675;28;20036;-64
2022/11/22 06:01:12;;;;;;;5.13;1.70;;;;;;;-142.75;100.00;76257.31;4972344;28;20367;-65
2022/11/22 06:03:38;;;;;;;7.03;2.43;;;;;;;-142.75;100.00;76247.47;4959243;28;20064;-65
2022/11/22 06:06:05;;;;;;;8.63;1.98;;;;;;;-142.75;100.00;76263.22;4979396;28;20092;-64
2022/11/22 06:08:32;;;;;;;8.60;1.83;;;;;;;-142.75;100.00;76267.16;4972437;28;20087;-66
2022/11/22 06:11:08;;;;;;;5.73;1.80;;;;;;;-142.75;100.00;76275.03;4975889;28;20118;-65
2022/11/22 06:13:35;;;;;;;7.75;2.28;;;;;;;-142.75;100.00;76265.19;4976824;28;20051;-65
2022/11/22 06:16:01;;;;;;;10.47;2.30;;;;;;;-142.75;100.00;76263.22;4973292;28;20115;-64
2022/11/22 06:18:27;;;;;;;11.63;2.25;;;;;;;-142.75;100.00;76269.13;4971985;28;20326;-65
2022/11/22 06:20:56;;;;;;;3.90;2.05;;;;;;;-142.75;100.00;76259.28;4984763;28;20021;-65
2022/11/22 06:23:22;;;;;;;9.90;2.27;;;;;;;-142.75;100.00;76267.16;4978820;28;20044;-65
2022/11/22 06:25:55;;;;;;;11.40;2.70;;;;;;;-142.75;100.00;76253.38;4983070;28;20028;-65
2022/11/22 06:28:20;;;;;;;8.73;2.43;;;;;;;-142.75;100.00;76255.34;4983808;28;20718;-65
2022/11/22 06:30:46;;;;;;;5.53;2.55;;;;;;;-142.75;100.00;76255.34;4979651;28;20025;-65
2022/11/22 06:33:11;;;;;;;10.75;2.63;;;;;;;-142.75;100.00;76245.50;4975890;28;20303;-64
2022/11/22 06:35:37;;;;;;;5.57;2.60;;;;;;;-142.75;100.00;76261.25;4965598;28;20473;-65
2022/11/22 06:38:02;;;;;;;5.65;2.67;;;;;;;-142.75;100.00;76255.34;4964293;28;20061;-65
2022/11/22 06:40:28;;;;;;;8.82;2.85;;;;;;;-142.75;100.00;76261.25;4976524;28;20431;-64
2022/11/22 06:42:53;;;;;;;10.27;2.67;;;;;;;-142.75;100.00;76257.31;4976024;28;20358;-65
2022/11/22 06:45:19;;;;;;;7.47;2.55;;;;;;;-142.75;100.00;76259.28;4964546;28;20382;-65
2022/11/22 06:47:44;;;;;;;5.50;2.70;;;;;;;-142.75;100.00;76245.50;4967864;28;20484;-65
2022/11/22 06:50:10;;;;;;;7.93;2.60;;;;;;;-142.75;100.00;76251.41;4973352;28;20346;-65
2022/11/22 06:52:35;;;;;;;9.45;2.75;;;;;;;-142.75;100.00;76255.34;4975481;28;20346;-66
2022/11/22 06:55:01;;;;;;;4.15;2.47;;;;;;;-142.75;100.00;76243.53;4978684;28;20098;-65
2022/11/22 06:57:26;;;;;;;6.72;2.72;;;;;;;-142.75;100.00;76241.56;4963936;28;20376;-65
2022/11/22 06:59:52;;;;;;;10.38;2.88;;;;;;;-142.75;100.00;76245.50;4966194;28;20025;-65
2022/11/22 07:02:17;;;;;;;4.85;2.28;;;;;;;-142.75;100.00;76255.34;4967932;28;20466;-65
2022/11/22 07:04:43;;;;;;;5.20;2.72;;;;;;;-142.75;100.00;76245.50;4962209;28;20353;-65
2022/11/22 07:07:08;;;;;;;9.55;2.90;;;;;;;-142.75;100.00;76243.53;4966088;28;20343;-65
2022/11/22 07:09:34;;;;;;;5.90;2.10;;;;;;;-142.75;100.00;76261.25;4971093;28;20191;-67
2022/11/22 07:11:59;;;;;;;8.30;2.55;;;;;;;-142.75;100.00;76259.28;4979327;28;20033;-68
2022/11/22 07:14:25;;;;;;;7.80;2.38;;;;;;;-142.75;100.00;76265.19;4977450;28;20249;-67
2022/11/22 07:16:51;;;;;;;6.47;2.42;;;;;;;-142.75;100.00;76255.34;4975781;28;20524;-67
2022/11/22 07:19:16;;;;;;;6.20;3.13;;;;;;;-142.75;100.00;76259.28;4976980;28;20419;-67
2022/11/22 07:21:42;;;;;;;5.85;3.10;;;;;;;-142.75;100.00;76265.19;4966318;28;20323;-65
2022/11/22 07:24:08;;;;;;;8.52;3.13;;;;;;;-142.75;100.00;76255.34;4966225;28;20322;-68
2022/11/22 07:26:33;;;;;;;7.03;2.63;;;;;;;-142.75;100.00;76251.41;4977931;28;20199;-67
2022/11/22 07:28:59;;;;;;;5.10;3.28;;;;;;;-142.75;100.00;76237.63;4965266;28;20330;-67
2022/11/22 07:31:25;;;;;;;14.85;3.05;;;;;;;-142.75;100.00;76233.69;4981493;28;20380;-67
2022/11/22 07:33:50;;;;;;;7.40;2.72;;;;;;;-142.75;100.00;76247.47;4969773;28;20260;-67
2022/11/22 07:36:18;;;;;;;6.68;4.40;;;;;;;-142.75;100.00;76229.75;4983445;28;20063;-67
2022/11/22 07:38:44;;;;;;;7.17;4.27;;;;;;;-142.75;100.00;76239.59;4970437;28;20099;-67
2022/11/22 07:41:10;;;;;;;11.02;4.35;;;;;;;-142.75;100.00;76233.69;4973388;28;20039;-68
2022/11/22 07:43:36;;;;;;;9.63;3.30;;;;;;;-142.75;100.00;76241.56;4980994;28;20186;-66
2022/11/22 07:46:05;;;;;;;7.88;2.80;;;;;;;-142.75;100.00;76227.78;4971125;28;20195;-67
2022/11/22 07:48:31;;;;;;;10.47;3.17;;;;;;;-142.75;100.00;76231.72;4963089;28;20056;-67
2022/11/22 07:50:56;;;;;;;13.70;4.00;;;;;;;-142.75;100.00;76237.63;4962919;28;20468;-68
2022/11/22 07:53:22;;;;;;;8.98;2.58;;;;;;;-142.75;100.00;76233.69;4982353;28;20052;-66
2022/11/22 07:55:47;;;;;;;11.13;2.65;;;;;;;-142.75;100.00;76233.69;4982745;28;20282;-67
2022/11/22 07:58:13;;;;;;;6.45;2.65;;;;;;;-142.75;100.00;76231.72;4982836;28;20444;-69
2022/11/22 08:00:39;;;;;;;6.82;2.70;;;;;;;-142.75;100.00;76231.72;4968976;28;20231;-69
2022/11/22 08:03:07;;;;;;;8.20;3.17;;;;;;;-142.75;100.00;76223.84;4979952;28;20059;-69
2022/11/22 08:05:33;;;;;;;7.50;2.30;;;;;;;-142.75;100.00;76227.78;4976122;28;20048;-71
2022/11/22 08:07:58;;;;;;;8.70;3.08;;;;;;;-142.75;100.00;76233.69;4976380;28;20064;-66
2022/11/22 08:10:24;;;;;;;8.77;3.58;;;;;;;-142.75;100.00;76231.72;4974272;28;20380;-69
2022/11/22 08:12:49;;;;;;;7.03;2.28;;;;;;;-142.75;100.00;76239.59;4966692;28;20334;-68
2022/11/22 08:15:16;;;;;;;7.65;2.60;;;;;;;-142.75;100.00;76245.50;4971191;28;20415;-70
2022/11/22 08:17:41;;;;;;;7.43;2.20;;;;;;;-142.75;100.00;76251.41;4970656;28;20021;-69
2022/11/22 08:20:09;;;;;;;7.18;2.33;;;;;;;-142.75;100.00;76229.75;4963264;28;20311;-69
2022/11/22 08:22:36;;;;;;;12.27;2.70;;;;;;;-142.75;100.00;76235.66;4980463;28;20136;-69
2022/11/22 08:25:01;;;;;;;8.37;2.10;;;;;;;-142.75;100.00;76243.53;4967500;28;20128;-69
2022/11/22 08:27:27;;;;;;;12.98;2.70;;;;;;;-142.75;100.00;76249.44;4962462;28;20319;-70
2022/11/22 08:29:52;;;;;;;6.22;2.17;;;;;;;-142.75;100.00;76251.41;4960698;28;20358;-69
2022/11/22 08:32:18;;;;;;;4.90;2.47;;;;;;;-142.75;100.00;76251.41;4977528;28;20423;-69
2022/11/22 08:34:44;;;;;;;7.45;2.90;;;;;;;-142.75;100.00;76241.56;4978074;28;20033;-68
2022/11/22 08:37:09;;;;;;;17.52;3.63;;;;;;;-142.75;100.00;76251.41;4963786;28;20358;-70
2022/11/22 08:39:35;;;;;;;8.63;3.00;;;;;;;-142.75;100.00;76261.25;4974731;28;20444;-69
2022/11/22 08:42:00;;;;;;;10.38;3.53;;;;;;;-142.75;100.00;76251.41;4973301;28;20044;-65
2022/11/22 08:44:26;;;;;;;8.00;2.80;;;;;;;-142.75;100.00;76278.97;4977171;28;20357;-71
2022/11/22 08:46:51;;;;;;;6.90;2.53;;;;;;;-142.75;100.00;76257.31;4964166;28;20353;-70
2022/11/22 08:49:17;;;;;;;6.60;2.70;;;;;;;-142.75;100.00;76263.22;4972146;28;20250;-71
2022/11/22 08:51:44;;;;;;;6.47;2.65;;;;;;;-142.75;100.00;76267.16;4970268;28;20248;-72
2022/11/22 08:54:14;;;;;;;8.00;3.10;;;;;;;-142.75;100.00;76259.28;4964556;28;20032;-69
2022/11/22 08:56:40;;;;;;;5.73;2.80;;;;;;;-142.75;100.00;76263.22;4994426;28;20021;-70
2022/11/22 08:59:05;;;;;;;6.03;2.63;;;;;;;-142.75;100.00;76271.09;5018640;28;20095;-71
2022/11/22 09:01:31;;;;;;;6.20;2.53;;;;;;;-142.75;100.00;76253.38;5019337;28;20025;-70
2022/11/22 09:03:56;;;;;;;8.25;2.85;;;;;;;-142.75;100.00;76259.28;5018763;28;20087;-70
2022/11/22 09:06:21;;;;;;;9.95;3.42;;;;;;;-142.75;100.00;76259.28;5018866;28;20068;-69
2022/11/22 09:08:46;;;;;;;7.80;3.50;;;;;;;-142.75;100.00;76251.41;5019020;28;20116;-68
2022/11/22 09:11:15;;;;;;;6.60;3.13;;;;;;;-142.75;100.00;76251.41;5019687;28;20025;-70
2022/11/22 09:13:41;;;;;;;4.67;2.90;;;;;;;-142.75;100.00;76259.28;5010184;28;20783;-68
2022/11/22 09:16:10;;;;;;;13.68;3.47;;;;;;;-142.75;100.00;76249.44;5018788;28;20100;-70
2022/11/22 09:18:35;;;;;;;7.10;3.20;;;;;;;-142.75;100.00;76251.41;5018421;28;20761;-71
2022/11/22 09:21:03;;;;;;;5.25;3.40;;;;;;;-142.75;100.00;76249.44;5019850;28;20090;-73
2022/11/22 09:23:29;;;;;;;8.93;2.93;;;;;;;-142.75;100.00;76237.63;5018463;28;20026;-71
2022/11/22 09:25:59;;;;;;;;;;;;;;;-142.75;100.00;76233.69;5026461;28;20836;-70
2022/11/22 09:28:26;;;;;;;7.07;2.83;;;;;;;-142.75;100.00;76247.47;5018952;28;19951;-72
2022/11/22 09:31:00;;;;;;;7.67;3.37;;;;;;;-142.75;100.00;76251.41;5018604;28;20021;-70
2022/11/22 09:33:25;;;;;;;4.67;3.13;;;;;;;-142.75;100.00;76247.47;5017796;28;20130;-70
2022/11/22 09:35:51;;;;;;;9.43;3.17;;;;;;;-142.75;100.00;76231.72;5020102;28;20479;-71
2022/11/22 09:38:16;;;;;;;10.02;2.92;;;;;;;-142.75;100.00;76237.63;5019114;28;20037;-69
2022/11/22 09:40:46;;;;;;;4.28;2.10;;;;;;;-142.75;100.00;76249.44;5019719;28;20025;-73
2022/11/22 09:43:23;;;;;;;7.47;2.30;;;;;;;-142.75;100.00;76247.47;5034243;28;20032;-71
2022/11/22 09:45:54;;;;;;;8.80;2.47;;;;;;;-142.75;100.00;76247.47;5033381;28;20036;-72
2022/11/22 09:48:32;;;;;;;7.87;2.67;;;;;;;-142.75;100.00;76251.41;5025699;28;20686;-71
2022/11/22 09:51:14;;;;;;;6.93;2.13;;;;;;;-142.75;100.00;76239.59;5017907;28;20034;-67
2022/11/22 09:53:50;;;;;;;7.93;2.53;;;;;;;-142.75;100.00;76241.56;5018447;28;20037;-70
2022/11/22 09:56:18;;;;;;;10.38;2.35;;;;;;;-142.75;100.00;76235.66;5017985;28;20052;-70
2022/11/22 09:58:50;;;;;;;5.23;2.37;;;;;;;-142.75;100.00;76229.75;5018828;28;20026;-71
2022/11/22 10:01:46;;;;;;;12.00;2.33;;;;;;;-142.75;100.00;76235.66;5018208;28;20032;-68
2022/11/22 10:04:26;;;;;;;8.07;2.47;;;;;;;-142.75;100.00;76231.72;5021813;28;20037;-69
2022/11/22 10:06:56;;;;;;;8.83;2.90;;;;;;;-142.75;100.00;76225.81;5021185;28;20029;-71
2022/11/22 10:09:39;;;;;;;9.00;2.50;;;;;;;-142.75;100.00;76235.66;5021401;28;20057;-68
2022/11/22 10:12:30;;;;;;;4.87;2.27;;;;;;;-142.75;100.00;76219.91;5022082;28;20136;-67
2022/11/22 10:15:07;;;;;;;5.37;1.83;;;;;;;-142.75;100.00;76212.03;5038956;28;20036;-71
2022/11/22 10:17:54;;;;;;;6.10;2.42;;;;;;;-142.75;100.00;76219.91;5025647;28;20025;-69
2022/11/22 10:20:26;;;;;;;7.53;2.58;;;;;;;-142.75;100.00;76208.09;5020705;28;20107;-70
2022/11/22 10:22:51;;;;;;;6.90;2.60;;;;;;;-142.75;100.00;76223.84;5022442;28;20055;-70
2022/11/22 10:25:21;;;;;;;3.22;2.20;;;;;;;-142.75;100.00;76208.09;5022318;28;20474;-71
2022/11/22 10:27:59;;;;;;;5.80;2.57;;;;;;;-142.75;100.00;76198.28;5020845;28;20044;-69
2022/11/22 10:30:29;;;;;;;7.90;1.97;;;;;;;-142.75;100.00;76214.00;5020577;28;20091;-70
2022/11/22 10:33:14;;;;;;;6.57;3.10;;;;;;;-142.75;100.00;76182.53;5022595;28;20470;-69
2022/11/22 10:35:58;;;;;;;3.00;1.83;;;;;;;-142.75;100.00;76186.47;5020462;28;20033;-71
2022/11/22 10:38:45;;;;;;;4.90;2.33;;;;;;;-142.75;100.00;76190.41;5020572;28;20025;-71
2022/11/22 10:41:39;;;;;;;7.32;2.42;;;;;;;-142.75;100.00;76188.44;5037171;28;20025;-70
2022/11/22 10:44:26;;;;;;;13.87;2.10;;;;;;;-142.75;100.00;76204.16;5021292;28;20021;-71
2022/11/22 10:47:04;;;;;;;7.43;2.10;;;;;;;-142.75;100.00;76176.63;5036971;28;20054;-72
2022/11/22 10:49:48;;;;;;;7.00;1.93;;;;;;;-142.75;100.00;76170.72;5040690;28;20086;-72
2022/11/22 10:52:20;;;;;;;4.20;1.97;;;;;;;-142.75;100.00;76172.69;5019537;28;20065;-72
2022/11/22 10:54:57;;;;;;;10.33;2.33;;;;;;;-142.75;100.00;76172.69;5027974;28;20063;-71
2022/11/22 10:57:30;;;;;;;7.27;2.30;;;;;;;-142.75;100.00;76182.53;5036769;28;20017;-69
2022/11/22 11:00:04;;;;;;;7.27;2.37;;;;;;;-142.75;100.00;76160.88;5041540;22;20032;-67
2022/11/22 11:03:02;;;;;;;6.07;1.97;;;;;;;-142.75;100.00;76156.94;4997750;28;20039;-68
2022/11/22 11:05:49;;;;;;;9.05;2.30;;;;;;;-142.75;100.00;76149.06;4999806;28;20033;-68
2022/11/22 11:08:23;;;;;;;7.63;1.95;;;;;;;-142.75;100.00;76160.88;4999289;28;20068;-69
2022/11/22 11:10:49;;;;;;;5.37;2.20;;;;;;;-142.75;100.00;76145.13;5016970;28;20423;-68
2022/11/22 11:13:27;;;;;;;5.65;1.92;;;;;;;-142.75;100.00;76156.94;5001061;28;20037;-68
2022/11/22 11:15:58;;;;;;;6.83;2.17;;;;;;;-142.75;100.00;76145.13;5000959;28;20124;-69
2022/11/22 11:18:46;;;;;;;7.70;2.00;;;;;;;-142.75;100.00;76145.13;4999548;28;20057;-68
2022/11/22 11:21:13;;;;;;;8.00;1.67;;;;;;;-142.75;100.00;76143.16;5001760;28;20029;-69
2022/11/22 11:23:40;;;;;;;8.37;1.70;;;;;;;-142.75;100.00;76137.25;5001245;28;20029;-69
2022/11/22 11:26:21;;;;;;;7.93;1.70;;;;;;;-142.75;100.00;76131.34;5001757;28;20793;-68